createdAt,value
2022-09-12T00:01:23.327Z,17.60
2022-09-12T00:03:58.126Z,17.60
2022-09-12T00:06:34.974Z,17.50
2022-09-12T00:09:08.962Z,17.50
2022-09-12T00:11:38.815Z,17.30
2022-09-12T00:14:08.007Z,17.30
2022-09-12T00:16:37.213Z,17.30
2022-09-12T00:19:06.080Z,17.20
2022-09-12T00:21:35.311Z,17.20
2022-09-12T00:24:03.530Z,17.10
2022-09-12T00:26:31.771Z,17.10
2022-09-12T00:28:59.871Z,17.10
2022-09-12T00:31:27.824Z,17.00
2022-09-12T00:33:58.195Z,16.90
2022-09-12T00:36:27.040Z,16.90
2022-09-12T00:38:54.928Z,16.90
2022-09-12T00:41:29.354Z,16.90
2022-09-12T00:44:00.589Z,17.00
2022-09-12T00:46:39.293Z,17.00
2022-09-12T00:49:15.573Z,17.00
2022-09-12T00:52:00.790Z,17.00
2022-09-12T00:54:32.512Z,17.00
2022-09-12T00:57:04.502Z,17.10
2022-09-12T00:59:41.904Z,17.10
2022-09-12T01:02:10.011Z,17.00
2022-09-12T01:04:40.845Z,16.90
2022-09-12T01:07:09.125Z,16.80
2022-09-12T01:09:38.028Z,16.80
2022-09-12T01:12:06.684Z,16.80
2022-09-12T01:14:35.195Z,16.70
2022-09-12T01:17:03.193Z,16.70
2022-09-12T01:19:36.858Z,16.70
2022-09-12T01:22:26.665Z,16.70
2022-09-12T01:25:31.144Z,16.80
2022-09-12T01:28:10.539Z,16.80
2022-09-12T01:31:00.988Z,16.80
2022-09-12T01:33:33.238Z,16.80
2022-09-12T01:36:07.369Z,16.90
2022-09-12T01:39:00.903Z,16.80
2022-09-12T01:41:54.632Z,16.90
2022-09-12T01:44:31.481Z,16.80
2022-09-12T01:47:29.477Z,16.80
2022-09-12T01:50:08.354Z,16.80
2022-09-12T01:52:46.476Z,16.80
2022-09-12T01:55:29.502Z,16.80
2022-09-12T01:58:03.376Z,16.90
2022-09-12T02:00:34.747Z,17.00
2022-09-12T02:03:11.648Z,16.90
2022-09-12T02:05:48.916Z,16.60
2022-09-12T02:08:27.011Z,16.50
2022-09-12T02:11:02.480Z,16.30
2022-09-12T02:13:36.521Z,16.20
2022-09-12T02:16:31.218Z,16.40
2022-09-12T02:19:11.182Z,16.40
2022-09-12T02:21:42.484Z,16.40
2022-09-12T02:24:12.669Z,16.20
2022-09-12T02:27:04.346Z,16.20
2022-09-12T02:29:32.332Z,16.20
2022-09-12T02:32:06.331Z,16.20
2022-09-12T02:35:01.943Z,16.20
2022-09-12T02:37:49.388Z,16.20
2022-09-12T02:40:18.635Z,16.20
2022-09-12T02:42:46.781Z,16.20
2022-09-12T02:45:14.893Z,16.30
2022-09-12T02:47:51.495Z,16.30
2022-09-12T02:50:20.091Z,16.30
2022-09-12T02:52:48.680Z,16.20
2022-09-12T02:55:17.128Z,16.10
2022-09-12T02:57:44.921Z,16.10
2022-09-12T03:00:13.467Z,16.10
2022-09-12T03:03:01.930Z,16.00
2022-09-12T03:05:37.599Z,16.00
2022-09-12T03:08:21.646Z,15.90
2022-09-12T03:11:00.977Z,15.90
2022-09-12T03:13:40.404Z,15.80
2022-09-12T03:16:44.985Z,15.70
2022-09-12T03:19:53.954Z,15.80
2022-09-12T03:22:36.401Z,15.80
2022-09-12T03:25:19.143Z,15.80
2022-09-12T03:27:56.371Z,15.80
2022-09-12T03:30:24.297Z,15.80
2022-09-12T03:32:54.393Z,15.80
2022-09-12T03:35:40.771Z,15.70
2022-09-12T03:38:08.638Z,15.70
2022-09-12T03:40:37.659Z,15.80
2022-09-12T03:43:07.977Z,15.80
2022-09-12T03:45:37.194Z,16.00
2022-09-12T03:48:06.321Z,16.10
2022-09-12T03:50:34.474Z,16.20
2022-09-12T03:53:03.689Z,16.10
2022-09-12T03:55:31.477Z,16.10
2022-09-12T03:57:59.429Z,16.10
2022-09-12T04:00:27.343Z,16.00
2022-09-12T04:02:56.998Z,16.00
2022-09-12T04:05:25.863Z,16.00
2022-09-12T04:07:53.711Z,15.90
2022-09-12T04:10:22.698Z,15.80
2022-09-12T04:12:50.548Z,15.80
2022-09-12T04:15:18.414Z,15.80
2022-09-12T04:17:46.221Z,15.80
2022-09-12T04:20:13.986Z,15.80
2022-09-12T04:22:41.828Z,15.70
2022-09-12T04:25:09.837Z,15.60
2022-09-12T04:27:38.571Z,15.60
2022-09-12T04:30:07.142Z,15.60
2022-09-12T04:33:00.167Z,15.60
2022-09-12T04:35:28.638Z,15.60
2022-09-12T04:37:59.212Z,15.60
2022-09-12T04:40:28.996Z,15.60
2022-09-12T04:42:56.952Z,15.50
2022-09-12T04:45:25.002Z,15.40
2022-09-12T04:47:52.973Z,15.50
2022-09-12T04:50:20.774Z,15.50
2022-09-12T04:52:52.442Z,15.60
2022-09-12T04:55:21.469Z,15.60
2022-09-12T04:57:49.273Z,15.70
2022-09-12T05:00:17.205Z,15.80
2022-09-12T05:02:45.162Z,15.80
2022-09-12T05:05:12.940Z,15.80
2022-09-12T05:07:40.856Z,15.80
2022-09-12T05:10:09.410Z,16.00
2022-09-12T05:12:37.728Z,16.20
2022-09-12T05:15:06.516Z,16.50
2022-09-12T05:17:34.300Z,16.80
2022-09-12T05:20:03.231Z,16.80
2022-09-12T05:22:31.415Z,16.80
2022-09-12T05:24:59.361Z,17.10
2022-09-12T05:27:27.144Z,17.30
2022-09-12T05:29:55.289Z,17.20
2022-09-12T05:32:23.102Z,17.50
2022-09-12T05:34:51.007Z,17.70
2022-09-12T05:37:18.737Z,17.80
2022-09-12T05:39:46.541Z,18.00
2022-09-12T05:42:14.378Z,18.20
2022-09-12T05:44:42.132Z,18.10
2022-09-12T05:47:12.881Z,18.00
2022-09-12T05:49:40.678Z,18.30
2022-09-12T05:52:08.754Z,18.40
2022-09-12T05:54:36.563Z,18.40
2022-09-12T05:57:04.645Z,18.60
2022-09-12T05:59:32.532Z,19.00
2022-09-12T06:02:00.449Z,19.10
2022-09-12T06:04:28.326Z,19.50
2022-09-12T06:06:56.105Z,19.40
2022-09-12T06:09:48.801Z,19.10
2022-09-12T06:12:16.557Z,19.00
2022-09-12T06:14:44.324Z,19.10
2022-09-12T06:17:12.176Z,19.00
2022-09-12T06:19:39.943Z,18.80
2022-09-12T06:22:58.500Z,18.80
2022-09-12T06:25:26.530Z,19.20
2022-09-12T06:27:54.323Z,19.70
2022-09-12T06:30:25.366Z,19.90
2022-09-12T06:32:53.761Z,20.00
2022-09-12T06:35:21.747Z,20.20
2022-09-12T06:37:49.630Z,19.80
2022-09-12T06:40:17.482Z,20.10
2022-09-12T06:42:45.262Z,20.40
2022-09-12T06:45:27.501Z,20.60
2022-09-12T06:47:55.908Z,20.60
2022-09-12T06:50:23.959Z,20.80
2022-09-12T06:52:51.818Z,21.10
2022-09-12T06:55:21.018Z,21.30
2022-09-12T06:57:52.328Z,21.80
2022-09-12T07:00:20.121Z,21.80
2022-09-12T07:02:48.465Z,21.90
2022-09-12T07:05:16.385Z,22.00
2022-09-12T07:07:44.109Z,22.20
2022-09-12T07:10:12.307Z,21.20
2022-09-12T07:12:40.100Z,21.00
2022-09-12T07:15:08.495Z,21.40
2022-09-12T07:17:36.265Z,21.20
2022-09-12T07:20:04.261Z,21.20
2022-09-12T07:22:32.098Z,21.10
2022-09-12T07:24:59.949Z,21.40
2022-09-12T07:27:27.716Z,21.10
2022-09-12T07:29:56.003Z,21.30
2022-09-12T07:32:23.884Z,21.40
2022-09-12T07:34:52.326Z,21.30
2022-09-12T07:37:20.142Z,21.60
2022-09-12T07:39:47.928Z,22.10
2022-09-12T07:42:15.784Z,22.50
2022-09-12T07:44:44.516Z,23.00
2022-09-12T07:47:12.500Z,23.20
2022-09-12T07:49:40.329Z,23.20
2022-09-12T07:52:08.268Z,23.50
2022-09-12T07:54:36.614Z,23.70
2022-09-12T07:57:04.655Z,24.20
2022-09-12T07:59:51.284Z,23.60
2022-09-12T08:02:20.395Z,23.90
2022-09-12T08:04:49.235Z,24.00
2022-09-12T08:07:19.190Z,23.90
2022-09-12T08:09:47.520Z,23.80
2022-09-12T08:12:16.604Z,24.20
2022-09-12T08:14:44.428Z,24.40
2022-09-12T08:17:12.215Z,24.30
2022-09-12T08:19:39.989Z,24.70
2022-09-12T08:22:08.313Z,24.50
2022-09-12T08:25:01.157Z,25.00
2022-09-12T08:27:29.071Z,24.80
2022-09-12T08:29:56.902Z,24.40
2022-09-12T08:32:24.677Z,24.70
2022-09-12T08:34:52.506Z,24.60
2022-09-12T08:37:20.314Z,24.90
2022-09-12T08:39:48.112Z,25.30
2022-09-12T08:42:59.217Z,25.20
2022-09-12T08:45:34.838Z,24.70
2022-09-12T08:48:04.830Z,25.20
2022-09-12T08:50:32.855Z,24.60
2022-09-12T08:53:14.197Z,25.30
2022-09-12T08:55:53.557Z,25.60
2022-09-12T08:58:23.648Z,25.40
2022-09-12T09:00:54.069Z,26.10
2022-09-12T09:03:30.204Z,26.40
2022-09-12T09:06:11.987Z,26.60
2022-09-12T09:09:17.473Z,27.20
2022-09-12T09:11:45.976Z,27.60
2022-09-12T09:14:48.066Z,27.80
2022-09-12T09:17:20.591Z,27.70
2022-09-12T09:19:56.573Z,28.00
2022-09-12T09:22:50.917Z,27.90
2022-09-12T09:25:25.784Z,27.90
2022-09-12T09:28:06.069Z,28.00
2022-09-12T09:30:36.207Z,28.30
2022-09-12T09:33:07.635Z,28.50
2022-09-12T09:35:54.218Z,28.00
2022-09-12T09:38:54.214Z,26.70
2022-09-12T09:41:31.004Z,26.60
2022-09-12T09:43:59.756Z,26.70
2022-09-12T09:46:28.220Z,27.10
2022-09-12T09:49:02.792Z,27.60
2022-09-12T09:51:36.653Z,27.50
2022-09-12T09:54:31.671Z,27.60
2022-09-12T09:56:59.485Z,27.70
2022-09-12T09:59:33.313Z,27.00
2022-09-12T10:02:26.604Z,26.50
2022-09-12T10:04:57.667Z,26.60
2022-09-12T10:07:27.297Z,26.90
2022-09-12T10:10:16.511Z,27.20
2022-09-12T10:12:44.922Z,26.70
2022-09-12T10:15:19.756Z,26.70
2022-09-12T10:17:50.659Z,26.70
2022-09-12T10:20:46.517Z,26.30
2022-09-12T10:23:41.154Z,26.50
2022-09-12T10:26:19.242Z,26.30
2022-09-12T10:28:53.595Z,26.60
2022-09-12T10:31:33.366Z,26.70
2022-09-12T10:34:01.607Z,27.00
2022-09-12T10:36:38.148Z,27.20
2022-09-12T10:39:06.973Z,27.50
2022-09-12T10:41:41.243Z,27.20
2022-09-12T10:44:19.200Z,26.90
2022-09-12T10:46:47.272Z,26.00
2022-09-12T10:49:25.695Z,26.10
2022-09-12T10:51:55.587Z,26.50
2022-09-12T10:54:26.954Z,26.70
2022-09-12T10:57:39.673Z,26.60
2022-09-12T11:00:17.715Z,26.90
2022-09-12T11:03:15.393Z,27.20
2022-09-12T11:06:01.524Z,26.50
2022-09-12T11:08:47.509Z,27.00
2022-09-12T11:11:27.291Z,26.80
2022-09-12T11:14:32.545Z,26.50
2022-09-12T11:17:16.630Z,26.90
2022-09-12T11:20:07.432Z,27.40
2022-09-12T11:22:55.722Z,27.10
2022-09-12T11:25:40.474Z,27.10
2022-09-12T11:28:47.408Z,27.00
2022-09-12T11:31:28.047Z,27.20
2022-09-12T11:33:57.634Z,27.00
2022-09-12T11:36:45.765Z,27.00
2022-09-12T11:39:29.142Z,27.00
2022-09-12T11:42:02.297Z,26.50
2022-09-12T11:44:40.280Z,26.10
2022-09-12T11:47:12.428Z,26.50
2022-09-12T11:50:00.433Z,26.90
2022-09-12T11:52:37.414Z,27.20
2022-09-12T11:55:26.142Z,27.40
2022-09-12T11:58:00.874Z,27.30
2022-09-12T12:00:31.822Z,27.20
2022-09-12T12:03:31.396Z,27.20
2022-09-12T12:06:26.785Z,26.70
2022-09-12T12:08:55.209Z,26.30
2022-09-12T12:11:43.278Z,26.50
2022-09-12T12:14:20.025Z,26.80
2022-09-12T12:16:49.483Z,26.70
2022-09-12T12:19:17.305Z,26.50
2022-09-12T12:21:47.446Z,26.40
2022-09-12T12:24:26.731Z,26.70
2022-09-12T12:26:58.671Z,27.00
2022-09-12T12:29:36.320Z,26.70
2022-09-12T12:32:05.840Z,26.70
2022-09-12T12:34:37.497Z,26.90
2022-09-12T12:37:22.705Z,27.00
2022-09-12T12:39:51.247Z,27.20
2022-09-12T12:42:34.688Z,27.20
2022-09-12T12:45:25.408Z,27.30
2022-09-12T12:48:09.980Z,26.80
2022-09-12T12:50:37.919Z,26.50
2022-09-12T12:53:24.899Z,26.60
2022-09-12T12:55:55.620Z,26.80
2022-09-12T12:58:37.500Z,27.00
2022-09-12T13:01:11.479Z,27.20
2022-09-12T13:03:46.775Z,27.30
2022-09-12T13:06:44.489Z,27.40
2022-09-12T13:09:18.098Z,27.30
2022-09-12T13:11:47.062Z,27.40
2022-09-12T13:14:37.099Z,27.40
2022-09-12T13:17:06.858Z,27.30
2022-09-12T13:19:38.188Z,27.20
2022-09-12T13:22:08.876Z,27.20
2022-09-12T13:24:49.162Z,27.10
2022-09-12T13:27:22.256Z,27.10
2022-09-12T13:29:50.473Z,27.00
2022-09-12T13:32:18.762Z,26.90
2022-09-12T13:35:05.254Z,26.60
2022-09-12T13:37:51.360Z,26.40
2022-09-12T13:40:38.011Z,26.30
2022-09-12T13:43:17.784Z,26.20
2022-09-12T13:45:47.574Z,26.30
2022-09-12T13:48:20.732Z,26.30
2022-09-12T13:50:57.101Z,26.50
2022-09-12T13:53:29.660Z,26.60
2022-09-12T13:55:59.689Z,26.90
2022-09-12T13:58:37.004Z,27.00
2022-09-12T14:01:16.160Z,27.00
2022-09-12T14:04:14.305Z,26.70
2022-09-12T14:06:51.033Z,26.50
2022-09-12T14:09:28.897Z,26.30
2022-09-12T14:11:57.803Z,26.30
2022-09-12T14:14:37.380Z,26.40
2022-09-12T14:17:36.225Z,26.60
2022-09-12T14:20:10.160Z,26.90
2022-09-12T14:22:39.604Z,26.90
2022-09-12T14:25:14.227Z,27.00
2022-09-12T14:27:48.049Z,27.20
2022-09-12T14:30:36.656Z,27.20
2022-09-12T14:33:10.313Z,27.30
2022-09-12T14:35:43.830Z,27.30
2022-09-12T14:38:23.384Z,27.10
2022-09-12T14:41:00.093Z,26.90
2022-09-12T14:43:34.065Z,26.70
2022-09-12T14:46:03.832Z,26.70
2022-09-12T14:48:48.817Z,26.60
2022-09-12T14:51:22.375Z,26.60
2022-09-12T14:53:50.636Z,26.60
2022-09-12T14:56:42.747Z,26.70
2022-09-12T14:59:35.502Z,26.90
2022-09-12T15:02:21.483Z,26.90
2022-09-12T15:04:52.342Z,26.90
2022-09-12T15:07:31.758Z,26.90
2022-09-12T15:10:02.007Z,26.90
2022-09-12T15:12:31.500Z,27.00
2022-09-12T15:15:17.983Z,27.00
2022-09-12T15:17:45.757Z,27.00
2022-09-12T15:20:14.793Z,27.00
2022-09-12T15:22:43.560Z,27.00
2022-09-12T15:25:13.481Z,26.80
2022-09-12T15:27:41.304Z,26.80
2022-09-12T15:30:10.409Z,26.80
2022-09-12T15:32:38.888Z,26.70
2022-09-12T15:35:18.909Z,26.60
2022-09-12T15:37:47.019Z,26.70
2022-09-12T15:40:15.123Z,26.70
2022-09-12T15:42:43.169Z,26.70
2022-09-12T15:45:23.753Z,26.60
2022-09-12T15:47:51.973Z,26.50
2022-09-12T15:50:19.764Z,26.40
2022-09-12T15:52:47.927Z,26.40
2022-09-12T15:55:19.216Z,26.40
2022-09-12T15:57:47.804Z,26.40
2022-09-12T16:00:17.600Z,26.30
2022-09-12T16:02:47.429Z,26.30
2022-09-12T16:05:18.509Z,26.30
2022-09-12T16:07:46.628Z,26.20
2022-09-12T16:10:16.317Z,26.20
2022-09-12T16:12:45.493Z,26.10
2022-09-12T16:15:17.099Z,26.00
2022-09-12T16:17:44.899Z,25.90
2022-09-12T16:20:13.154Z,25.80
2022-09-12T16:22:41.222Z,25.70
2022-09-12T16:25:09.616Z,25.70
2022-09-12T16:27:38.842Z,25.60
2022-09-12T16:30:07.771Z,25.60
2022-09-12T16:32:35.690Z,25.40
2022-09-12T16:35:04.496Z,25.40
2022-09-12T16:37:34.625Z,25.30
2022-09-12T16:40:04.506Z,25.30
2022-09-12T16:42:32.626Z,25.30
2022-09-12T16:45:00.643Z,25.20
2022-09-12T16:47:32.188Z,25.10
2022-09-12T16:50:00.008Z,25.10
2022-09-12T16:52:28.795Z,25.00
2022-09-12T16:54:56.544Z,24.90
2022-09-12T16:57:24.280Z,24.80
2022-09-12T16:59:52.226Z,24.70
2022-09-12T17:02:20.485Z,24.60
2022-09-12T17:04:48.903Z,24.50
2022-09-12T17:07:16.756Z,24.50
2022-09-12T17:09:47.871Z,24.40
2022-09-12T17:12:15.865Z,24.30
2022-09-12T17:14:43.655Z,24.20
2022-09-12T17:17:12.188Z,24.20
2022-09-12T17:19:41.121Z,24.10
2022-09-12T17:22:09.238Z,24.00
2022-09-12T17:24:37.080Z,23.80
2022-09-12T17:27:04.918Z,23.70
2022-09-12T17:29:34.451Z,23.60
2022-09-12T17:32:02.595Z,23.40
2022-09-12T17:34:30.453Z,23.30
2022-09-12T17:36:58.491Z,23.20
2022-09-12T17:39:28.981Z,23.00
2022-09-12T17:41:58.927Z,22.80
2022-09-12T17:44:30.077Z,22.60
2022-09-12T17:46:57.838Z,22.50
2022-09-12T17:50:31.452Z,22.40
2022-09-12T17:53:02.176Z,22.30
2022-09-12T17:55:32.538Z,22.30
2022-09-12T17:58:00.999Z,22.20
2022-09-12T18:00:48.323Z,22.10
2022-09-12T18:03:16.759Z,22.00
2022-09-12T18:06:02.596Z,21.90
2022-09-12T18:08:30.399Z,21.80
2022-09-12T18:11:05.396Z,21.80
2022-09-12T18:13:36.400Z,21.70
2022-09-12T18:16:09.971Z,21.40
2022-09-12T18:18:38.931Z,21.20
2022-09-12T18:21:08.528Z,21.10
2022-09-12T18:23:36.591Z,20.90
2022-09-12T18:26:10.297Z,20.90
2022-09-12T18:28:41.025Z,20.80
2022-09-12T18:31:17.550Z,20.80
2022-09-12T18:33:46.365Z,20.70
2022-09-12T18:36:15.672Z,20.50
2022-09-12T18:38:43.982Z,20.40
2022-09-12T18:41:17.860Z,20.40
2022-09-12T18:43:46.494Z,20.40
2022-09-12T18:46:17.179Z,20.30
2022-09-12T18:48:45.958Z,20.30
2022-09-12T18:51:16.476Z,20.20
2022-09-12T18:53:52.955Z,20.00
2022-09-12T18:56:23.049Z,20.00
2022-09-12T18:58:53.100Z,19.80
2022-09-12T19:01:31.337Z,19.70
2022-09-12T19:04:01.056Z,19.70
2022-09-12T19:06:31.966Z,19.70
2022-09-12T19:09:03.883Z,19.70
2022-09-12T19:11:59.880Z,19.60
2022-09-12T19:14:27.810Z,19.60
2022-09-12T19:16:55.654Z,19.50
2022-09-12T19:19:23.451Z,19.40
2022-09-12T19:21:51.231Z,19.30
2022-09-12T19:24:19.551Z,19.10
2022-09-12T19:26:47.937Z,19.00
2022-09-12T19:29:16.771Z,19.10
2022-09-12T19:32:09.557Z,19.20
2022-09-12T19:34:37.285Z,19.20
2022-09-12T19:37:05.149Z,19.10
2022-09-12T19:39:33.100Z,19.00
2022-09-12T19:42:00.983Z,18.90
2022-09-12T19:44:30.334Z,18.90
2022-09-12T19:46:58.482Z,18.90
2022-09-12T19:49:26.344Z,18.80
2022-09-12T19:51:54.144Z,18.80
2022-09-12T19:54:21.947Z,18.90
2022-09-12T19:56:50.546Z,18.80
2022-09-12T19:59:18.456Z,18.70
2022-09-12T20:01:46.379Z,18.70
2022-09-12T20:04:39.437Z,18.70
2022-09-12T20:07:07.375Z,18.70
2022-09-12T20:09:36.040Z,18.70
2022-09-12T20:12:05.316Z,18.80
2022-09-12T20:14:33.106Z,18.70
2022-09-12T20:17:00.867Z,18.60
2022-09-12T20:19:28.761Z,18.60
2022-09-12T20:21:56.569Z,18.50
2022-09-12T20:25:15.212Z,18.40
2022-09-12T20:27:43.291Z,18.30
2022-09-12T20:30:11.608Z,18.50
2022-09-12T20:32:39.414Z,18.60
2022-09-12T20:35:08.208Z,18.70
2022-09-12T20:37:36.192Z,18.60
2022-09-12T20:40:04.667Z,18.60
2022-09-12T20:42:32.643Z,18.40
2022-09-12T20:45:00.386Z,18.40
2022-09-12T20:47:28.157Z,18.20
2022-09-12T20:49:55.983Z,18.20
2022-09-12T20:52:23.868Z,18.30
2022-09-12T20:54:52.138Z,18.30
2022-09-12T20:57:20.025Z,18.30
2022-09-12T20:59:47.808Z,18.30
2022-09-12T21:02:15.983Z,18.30
2022-09-12T21:04:43.913Z,18.40
2022-09-12T21:07:11.623Z,18.40
2022-09-12T21:09:39.801Z,18.40
2022-09-12T21:12:07.635Z,18.30
2022-09-12T21:14:35.499Z,18.30
2022-09-12T21:17:03.885Z,18.30
2022-09-12T21:19:31.720Z,18.30
2022-09-12T21:21:59.612Z,18.20
2022-09-12T21:24:27.374Z,18.10
2022-09-12T21:26:55.654Z,18.10
2022-09-12T21:29:23.394Z,18.10
2022-09-12T21:31:51.853Z,18.30
2022-09-12T21:34:19.814Z,18.30
2022-09-12T21:36:47.683Z,18.30
2022-09-12T21:39:15.433Z,18.20
2022-09-12T21:41:43.508Z,18.10
2022-09-12T21:44:11.415Z,18.10
2022-09-12T21:46:39.253Z,18.00
2022-09-12T21:49:07.123Z,17.90
2022-09-12T21:51:34.945Z,17.90
2022-09-12T21:54:02.764Z,17.80
2022-09-12T21:56:31.163Z,17.70
2022-09-12T21:58:58.999Z,17.40
2022-09-12T22:01:26.829Z,17.30
2022-09-12T22:03:54.688Z,17.20
2022-09-12T22:06:22.738Z,17.10
2022-09-12T22:08:50.522Z,17.20
2022-09-12T22:11:19.832Z,17.20
2022-09-12T22:13:47.675Z,17.30
2022-09-12T22:16:15.605Z,17.40
2022-09-12T22:18:43.818Z,17.40
2022-09-12T22:21:16.065Z,17.50
2022-09-12T22:24:03.654Z,17.50
2022-09-12T22:26:36.506Z,17.60
2022-09-12T22:29:04.295Z,17.60
2022-09-12T22:31:33.349Z,17.60
2022-09-12T22:34:01.139Z,17.50
2022-09-12T22:36:31.290Z,17.30
2022-09-12T22:39:00.162Z,17.30
2022-09-12T22:41:28.579Z,17.10
2022-09-12T22:43:57.407Z,17.00
2022-09-12T22:46:25.582Z,17.00
2022-09-12T22:48:55.631Z,17.00
2022-09-12T22:51:23.701Z,17.10
2022-09-12T22:53:51.725Z,17.20
2022-09-12T22:56:19.550Z,17.20
2022-09-12T22:58:47.767Z,17.30
2022-09-12T23:01:15.640Z,17.20
2022-09-12T23:03:43.772Z,17.20
2022-09-12T23:06:12.274Z,17.20
2022-09-12T23:08:40.327Z,17.10
2022-09-12T23:11:33.536Z,16.90
2022-09-12T23:14:01.315Z,16.80
2022-09-12T23:16:32.082Z,16.70
2022-09-12T23:18:59.931Z,16.60
2022-09-12T23:21:29.983Z,16.50
2022-09-12T23:23:57.773Z,16.50
2022-09-12T23:26:29.703Z,16.50
2022-09-12T23:29:00.030Z,16.40
2022-09-12T23:31:30.347Z,16.40
2022-09-12T23:34:01.904Z,16.30
2022-09-12T23:36:30.351Z,16.20
2022-09-12T23:38:58.385Z,16.30
2022-09-12T23:41:26.403Z,16.30
2022-09-12T23:43:54.468Z,16.30
2022-09-12T23:46:22.507Z,16.30
2022-09-12T23:48:50.612Z,16.30
2022-09-12T23:51:19.350Z,16.20
2022-09-12T23:53:47.125Z,16.30
2022-09-12T23:56:17.672Z,16.30
2022-09-12T23:58:45.474Z,16.40
